KROC/ROC METAR and TAF weather

Enter ICAO airport designator
Station Type Date Time Source
KROC METAR 2022/11/30 09:54 UTC NOAA

KROC 300954Z 17008KT 10SM FEW070 OVC095 07/02 A2970 RMK AO2 SLP063 T00720017


Station Type Date Time Source
KROC Decoded METAR 2022/11/30 09:54 UTC NOAA

GREATER ROCHESTER INTERNATIONAL , NY, United States (KROC) 43-07N 077-41W 178M
Nov 30, 2022 - 04:54 AM EST / 2022.11.30 0954 UTC
Wind: from the S (170 degrees) at 9 MPH (8 KT):0
Visibility: 10 mile(s):0
Sky conditions: overcast
Temperature: 45.0 F (7.2 C)
Dew Point: 35.1 F (1.7 C)
Relative Humidity: 68%
Pressure (altimeter): 29.7 in. Hg (1005 hPa)
ob: KROC 300954Z 17008KT 10SM FEW070 OVC095 07/02 A2970 RMK AO2 SLP063 T00720017
cycle: 10

Station Type Date Time Source
KROC TAF 2022/11/30 09:06 UTC NOAA

TAF
AMD KROC 300905Z 3009/0106 17014G24KT P6SM BKN090 WS015/18045KT
FM301100 17014G23KT P6SM -SHRA OVC060 WS015/18050KT
FM301300 17015G25KT 6SM -RA BR OVC040 WS015/19055KT
FM301600 20018G28KT 4SM RA BR OVC025
FM301800 26024G42KT 6SM -SHRA BR OVC015
FM302000 26024G38KT P6SM BKN040

Example: see airport list